Time;durP1;ratioP1;P1;durP2;ratioP2;P2;SDS_P1;SDS_P2;PMS_P1;PMS_P2;Temp;Humidity;BMP_temperature;BMP_pressure;BME280_temperature;BME280_humidity;BME280_pressure;Samples;Min_cycle;Max_cycle;Signal;HPM_P1;HPM_P2
2022/04/06 00:00:31;;;;;;;4.32;3.60;;;;;;;;;;4905830;29;20109;-60
2022/04/06 00:02:57;;;;;;;5.90;3.60;;;;;;;;;;4906888;29;20578;-61
2022/04/06 00:05:23;;;;;;;4.78;3.40;;;;;;;;;;4902866;29;20344;-56
2022/04/06 00:07:48;;;;;;;3.63;3.25;;;;;;;;;;4905360;29;20100;-55
2022/04/06 00:10:14;;;;;;;6.18;3.55;;;;;;;;;;4903534;29;20029;-56
2022/04/06 00:12:40;;;;;;;4.50;3.42;;;;;;;;;;4905675;29;20100;-54
2022/04/06 00:15:08;;;;;;;4.82;3.45;;;;;;;;;;4909736;29;20297;-54
2022/04/06 00:17:34;;;;;;;4.22;3.40;;;;;;;;;;4915277;29;20088;-52
2022/04/06 00:19:59;;;;;;;4.13;3.28;;;;;;;;;;4907678;29;20025;-55
2022/04/06 00:22:24;;;;;;;4.47;3.60;;;;;;;;;;4910142;29;20194;-51
2022/04/06 00:24:51;;;;;;;3.53;3.22;;;;;;;;;;4906293;29;20023;-52
2022/04/06 00:27:17;;;;;;;4.35;3.90;;;;;;;;;;4908760;29;20080;-53
2022/04/06 00:29:43;;;;;;;3.97;3.17;;;;;;;;;;4910613;29;20252;-55
2022/04/06 00:32:09;;;;;;;3.78;3.28;;;;;;;;;;4913382;29;20028;-54
2022/04/06 00:37:18;;;;;;;4.05;2.95;;;;;;;;;;4908431;29;20336;-56
2022/04/06 00:39:43;;;;;;;3.63;2.92;;;;;;;;;;4908322;29;20297;-54
2022/04/06 00:42:09;;;;;;;3.67;3.35;;;;;;;;;;4916594;29;20032;-54
2022/04/06 00:44:34;;;;;;;3.80;3.30;;;;;;;;;;4919855;29;20033;-52
2022/04/06 00:47:03;;;;;;;4.60;3.50;;;;;;;;;;4913462;29;20032;-55
2022/04/06 00:49:28;;;;;;;4.65;3.40;;;;;;;;;;4912554;29;20043;-54
2022/04/06 00:51:54;;;;;;;4.20;3.33;;;;;;;;;;4908128;29;20052;-53
2022/04/06 00:54:21;;;;;;;4.45;3.60;;;;;;;;;;4907056;29;20033;-52
2022/04/06 00:56:47;;;;;;;3.63;2.97;;;;;;;;;;4909627;29;20360;-51
2022/04/06 00:59:14;;;;;;;4.10;3.03;;;;;;;;;;4912715;29;20048;-55
2022/04/06 01:01:40;;;;;;;4.28;3.00;;;;;;;;;;4908928;29;20028;-57
2022/04/06 01:04:06;;;;;;;4.32;3.22;;;;;;;;;;4911486;29;20024;-56
2022/04/06 01:06:31;;;;;;;3.13;2.83;;;;;;;;;;4908923;29;20040;-56
2022/04/06 01:08:57;;;;;;;4.10;3.25;;;;;;;;;;4913654;29;20033;-55
2022/04/06 01:11:23;;;;;;;4.45;3.15;;;;;;;;;;4909338;29;20040;-54
2022/04/06 01:13:49;;;;;;;3.40;3.10;;;;;;;;;;4916654;29;20028;-54
2022/04/06 01:16:15;;;;;;;3.65;3.28;;;;;;;;;;4912383;29;20063;-55
2022/04/06 01:18:41;;;;;;;5.32;3.72;;;;;;;;;;4907929;29;20044;-57
2022/04/06 01:21:07;;;;;;;4.53;3.38;;;;;;;;;;4904541;29;20339;-56
2022/04/06 01:23:32;;;;;;;4.00;3.15;;;;;;;;;;4906184;29;20047;-59
2022/04/06 01:25:58;;;;;;;3.60;3.30;;;;;;;;;;4909773;29;20028;-58
2022/04/06 01:28:24;;;;;;;4.57;3.60;;;;;;;;;;4908501;29;20384;-52
2022/04/06 01:30:49;;;;;;;3.95;3.20;;;;;;;;;;4912139;29;20028;-55
2022/04/06 01:33:15;;;;;;;3.88;3.00;;;;;;;;;;4910008;29;20270;-54
2022/04/06 01:35:42;;;;;;;4.95;3.33;;;;;;;;;;4907233;29;20039;-55
2022/04/06 01:38:08;;;;;;;4.57;3.30;;;;;;;;;;4906254;29;20037;-53
2022/04/06 01:40:34;;;;;;;4.95;3.55;;;;;;;;;;4914070;29;20055;-56
2022/04/06 01:42:59;;;;;;;5.60;3.70;;;;;;;;;;4908861;29;20065;-56
2022/04/06 01:45:25;;;;;;;5.50;3.72;;;;;;;;;;4907938;29;20079;-56
2022/04/06 01:47:51;;;;;;;4.78;3.70;;;;;;;;;;4908349;29;20317;-54
2022/04/06 01:53:17;;;;;;;4.13;3.38;;;;;;;;;;4884608;29;20029;-57
2022/04/06 01:55:42;;;;;;;4.25;3.53;;;;;;;;;;4909268;29;20052;-58
2022/04/06 01:58:08;;;;;;;5.75;3.55;;;;;;;;;;4911249;29;20099;-57
2022/04/06 02:00:33;;;;;;;4.82;4.00;;;;;;;;;;4912053;29;20301;-57
2022/04/06 02:03:00;;;;;;;4.55;3.90;;;;;;;;;;4906120;29;20243;-58
2022/04/06 02:05:31;;;;;;;4.20;3.80;;;;;;;;;;4912084;29;20040;-56
2022/04/06 02:07:56;;;;;;;4.80;3.70;;;;;;;;;;4909999;29;20281;-54
2022/04/06 02:10:22;;;;;;;4.18;3.75;;;;;;;;;;4911651;29;20087;-55
2022/04/06 02:12:48;;;;;;;4.03;3.50;;;;;;;;;;4914124;29;20138;-58
2022/04/06 02:15:14;;;;;;;5.72;4.10;;;;;;;;;;4907680;29;20103;-57
2022/04/06 02:17:40;;;;;;;4.90;3.70;;;;;;;;;;4911299;29;20308;-58
2022/04/06 02:20:06;;;;;;;4.05;3.58;;;;;;;;;;4912893;29;20051;-58
2022/04/06 02:22:31;;;;;;;5.20;3.90;;;;;;;;;;4917008;29;20088;-57
2022/04/06 02:24:57;;;;;;;6.90;3.67;;;;;;;;;;4909129;29;20119;-54
2022/04/06 02:27:22;;;;;;;4.85;3.60;;;;;;;;;;4902080;29;20067;-55
2022/04/06 02:29:48;;;;;;;5.47;3.78;;;;;;;;;;4905106;29;20317;-56
2022/04/06 02:32:14;;;;;;;5.38;3.83;;;;;;;;;;4907930;29;20048;-54
2022/04/06 02:34:40;;;;;;;5.85;4.25;;;;;;;;;;4911707;29;20060;-58
2022/04/06 02:37:07;;;;;;;4.85;3.63;;;;;;;;;;4913558;29;20032;-56
2022/04/06 02:39:32;;;;;;;8.77;3.78;;;;;;;;;;4905642;29;20060;-55
2022/04/06 02:41:58;;;;;;;5.28;3.92;;;;;;;;;;4911774;29;20033;-68
2022/04/06 02:44:23;;;;;;;6.30;4.30;;;;;;;;;;4908127;29;20036;-67
2022/04/06 02:46:48;;;;;;;5.60;4.10;;;;;;;;;;4913773;29;20321;-68
2022/04/06 02:49:16;;;;;;;4.68;3.92;;;;;;;;;;4911078;29;20032;-69
2022/04/06 02:51:41;;;;;;;6.43;4.20;;;;;;;;;;4904630;29;20043;-67
2022/04/06 02:54:07;;;;;;;5.82;4.10;;;;;;;;;;4905668;29;20040;-67
2022/04/06 02:56:32;;;;;;;5.78;4.38;;;;;;;;;;4910251;29;20333;-64
2022/04/06 02:58:58;;;;;;;5.20;4.00;;;;;;;;;;4913427;29;20073;-65
2022/04/06 03:01:23;;;;;;;5.50;4.20;;;;;;;;;;4909470;29;20053;-66
2022/04/06 03:03:49;;;;;;;6.72;4.43;;;;;;;;;;4911109;29;20036;-66
2022/04/06 03:06:15;;;;;;;8.68;5.00;;;;;;;;;;4909789;29;20040;-65
2022/04/06 03:08:40;;;;;;;6.03;4.00;;;;;;;;;;4904488;29;20028;-65
2022/04/06 03:11:06;;;;;;;5.00;3.95;;;;;;;;;;4905414;29;20040;-64
2022/04/06 03:13:31;;;;;;;5.72;3.75;;;;;;;;;;4906180;29;20136;-61
2022/04/06 03:15:57;;;;;;;6.80;4.05;;;;;;;;;;4902834;29;20028;-61
2022/04/06 03:18:22;;;;;;;8.75;2.85;;;;;;;;;;4907373;29;20032;-59
2022/04/06 03:20:48;;;;;;;6.75;2.97;;;;;;;;;;4908465;29;20032;-61
2022/04/06 03:23:17;;;;;;;7.82;2.78;;;;;;;;;;4909349;29;20036;-62
2022/04/06 03:25:42;;;;;;;6.60;2.45;;;;;;;;;;4911044;29;20044;-61
2022/04/06 03:28:08;;;;;;;6.47;2.15;;;;;;;;;;4906372;29;20054;-61
2022/04/06 03:30:34;;;;;;;7.93;2.25;;;;;;;;;;4904539;29;20033;-61
2022/04/06 03:32:59;;;;;;;5.28;1.65;;;;;;;;;;4910869;29;20028;-61
2022/04/06 03:35:24;;;;;;;9.05;2.33;;;;;;;;;;4905727;29;20051;-61
2022/04/06 03:37:51;;;;;;;4.47;2.08;;;;;;;;;;4909173;29;20322;-65
2022/04/06 03:40:17;;;;;;;5.15;1.67;;;;;;;;;;4908792;29;20088;-65
2022/04/06 03:42:43;;;;;;;8.27;2.22;;;;;;;;;;4906317;29;20068;-65
2022/04/06 03:45:09;;;;;;;5.85;2.10;;;;;;;;;;4905781;29;20037;-65
2022/04/06 03:47:36;;;;;;;7.63;1.88;;;;;;;;;;4907729;29;20033;-65
2022/04/06 03:50:02;;;;;;;5.38;1.55;;;;;;;;;;4906522;29;20226;-65
2022/04/06 03:52:28;;;;;;;4.05;1.55;;;;;;;;;;4906253;29;20036;-66
2022/04/06 03:54:54;;;;;;;4.75;1.70;;;;;;;;;;4908170;29;20236;-65
2022/04/06 03:57:20;;;;;;;6.13;1.90;;;;;;;;;;4908800;29;20048;-66
2022/04/06 03:59:45;;;;;;;7.43;1.80;;;;;;;;;;4908887;29;20028;-66
2022/04/06 04:02:11;;;;;;;5.10;2.20;;;;;;;;;;4905414;29;20329;-65
2022/04/06 04:04:36;;;;;;;7.85;1.88;;;;;;;;;;4908863;29;20243;-66
2022/04/06 04:07:02;;;;;;;5.80;1.77;;;;;;;;;;4907856;29;20044;-64
2022/04/06 04:09:28;;;;;;;5.72;1.80;;;;;;;;;;4911344;29;20029;-64
2022/04/06 04:11:56;;;;;;;4.70;1.63;;;;;;;;;;4905611;29;21518;-66
2022/04/06 04:14:22;;;;;;;5.32;2.03;;;;;;;;;;4907110;29;20028;-65
2022/04/06 04:16:47;;;;;;;4.82;1.50;;;;;;;;;;4903761;29;20111;-63
2022/04/06 04:19:13;;;;;;;7.18;1.70;;;;;;;;;;4907987;29;20032;-65
2022/04/06 04:21:38;;;;;;;8.82;1.98;;;;;;;;;;4907463;29;20052;-65
2022/04/06 04:24:08;;;;;;;8.68;1.90;;;;;;;;;;4904778;29;20131;-66
2022/04/06 04:26:34;;;;;;;8.15;1.77;;;;;;;;;;4905428;29;20262;-64
2022/04/06 04:29:00;;;;;;;3.60;1.40;;;;;;;;;;4911350;29;20332;-65
2022/04/06 04:31:26;;;;;;;4.55;2.05;;;;;;;;;;4907563;29;20051;-65
2022/04/06 04:33:51;;;;;;;4.60;1.50;;;;;;;;;;4904673;29;20258;-65
2022/04/06 04:36:17;;;;;;;8.75;2.10;;;;;;;;;;4906713;29;20390;-63
2022/04/06 04:38:43;;;;;;;7.28;2.30;;;;;;;;;;4907920;29;20078;-64
2022/04/06 04:41:09;;;;;;;7.43;1.80;;;;;;;;;;4905891;29;20040;-64
2022/04/06 04:43:35;;;;;;;8.45;2.00;;;;;;;;;;4908076;29;20036;-65
2022/04/06 04:46:01;;;;;;;7.53;1.60;;;;;;;;;;4908473;29;20032;-66
2022/04/06 04:48:28;;;;;;;5.70;1.60;;;;;;;;;;4904401;29;20020;-65
2022/04/06 04:50:53;;;;;;;8.68;2.08;;;;;;;;;;4909196;29;20217;-66
2022/04/06 04:53:19;;;;;;;7.07;2.20;;;;;;;;;;4906543;29;20034;-65
2022/04/06 04:55:44;;;;;;;7.78;1.52;;;;;;;;;;4910870;29;20027;-65
2022/04/06 04:58:10;;;;;;;7.63;2.10;;;;;;;;;;4905900;29;20094;-66
2022/04/06 05:00:35;;;;;;;8.55;2.03;;;;;;;;;;4914094;29;20100;-65
2022/04/06 05:03:02;;;;;;;5.70;1.83;;;;;;;;;;4908472;29;20039;-64
2022/04/06 05:05:29;;;;;;;5.93;2.08;;;;;;;;;;4912066;29;20044;-64
2022/04/06 05:07:57;;;;;;;5.97;1.80;;;;;;;;;;4908757;29;20040;-63
2022/04/06 05:10:22;;;;;;;7.43;1.92;;;;;;;;;;4905888;29;20085;-63
2022/04/06 05:12:48;;;;;;;5.25;1.92;;;;;;;;;;4905185;29;20028;-56
2022/04/06 05:15:14;;;;;;;6.90;1.88;;;;;;;;;;4922273;29;20340;-60
2022/04/06 05:17:39;;;;;;;6.68;1.88;;;;;;;;;;4903090;29;20036;-64
2022/04/06 05:20:07;;;;;;;5.70;1.83;;;;;;;;;;4905560;29;20325;-62
2022/04/06 05:22:32;;;;;;;6.35;2.00;;;;;;;;;;4905993;29;20042;-61
2022/04/06 05:24:59;;;;;;;5.20;1.90;;;;;;;;;;4907743;29;20064;-62
2022/04/06 05:27:25;;;;;;;7.50;1.90;;;;;;;;;;4904104;29;20136;-61
2022/04/06 05:29:50;;;;;;;10.00;2.38;;;;;;;;;;4911203;29;20040;-61
2022/04/06 05:32:15;;;;;;;6.88;2.22;;;;;;;;;;4903439;29;20027;-62
2022/04/06 05:34:41;;;;;;;8.00;2.10;;;;;;;;;;4909089;29;20067;-66
2022/04/06 05:37:06;;;;;;;7.80;2.08;;;;;;;;;;4909479;29;20052;-63
2022/04/06 05:39:32;;;;;;;9.70;1.90;;;;;;;;;;4905605;29;20037;-61
2022/04/06 05:41:57;;;;;;;5.65;1.80;;;;;;;;;;4904026;29;20047;-62
2022/04/06 05:44:22;;;;;;;10.07;2.17;;;;;;;;;;4906587;29;20360;-61
2022/04/06 05:46:48;;;;;;;8.85;2.38;;;;;;;;;;4908858;29;20032;-61
2022/04/06 05:49:13;;;;;;;7.32;2.13;;;;;;;;;;4905458;29;20103;-61
2022/04/06 05:51:39;;;;;;;7.15;1.80;;;;;;;;;;4907921;29;20044;-61
2022/04/06 05:54:04;;;;;;;7.00;1.88;;;;;;;;;;4907982;29;20376;-62
2022/04/06 05:56:30;;;;;;;4.65;1.75;;;;;;;;;;4903919;29;20332;-62
2022/04/06 05:58:56;;;;;;;5.88;1.73;;;;;;;;;;4911787;29;20036;-61
2022/04/06 06:01:22;;;;;;;7.80;1.85;;;;;;;;;;4910724;29;20258;-62
2022/04/06 06:03:47;;;;;;;9.07;2.15;;;;;;;;;;4904807;29;20040;-62
2022/04/06 06:06:13;;;;;;;8.05;1.80;;;;;;;;;;4910111;29;20174;-64
2022/04/06 06:08:38;;;;;;;7.50;2.13;;;;;;;;;;4903101;29;20306;-62
2022/04/06 06:11:05;;;;;;;7.05;1.95;;;;;;;;;;4907659;29;20048;-63
2022/04/06 06:13:31;;;;;;;5.07;1.80;;;;;;;;;;4908079;29;20059;-60
2022/04/06 06:15:56;;;;;;;7.38;1.80;;;;;;;;;;4902792;29;20032;-62
2022/04/06 06:18:22;;;;;;;7.72;1.70;;;;;;;;;;4907744;29;20123;-64
2022/04/06 06:20:48;;;;;;;7.00;1.83;;;;;;;;;;4907266;29;20305;-62
2022/04/06 06:23:13;;;;;;;4.88;1.70;;;;;;;;;;4902414;29;20142;-61
2022/04/06 06:25:39;;;;;;;6.00;1.83;;;;;;;;;;4906827;29;20104;-60
2022/04/06 06:28:05;;;;;;;5.45;1.70;;;;;;;;;;4904726;29;20056;-60
2022/04/06 06:30:30;;;;;;;7.20;1.77;;;;;;;;;;4905156;29;20375;-60
2022/04/06 06:32:55;;;;;;;3.47;1.90;;;;;;;;;;4906096;29;20246;-63
2022/04/06 06:35:23;;;;;;;4.38;1.58;;;;;;;;;;4906284;29;20035;-61
2022/04/06 06:37:51;;;;;;;6.20;1.73;;;;;;;;;;4903266;29;20037;-61
2022/04/06 06:40:18;;;;;;;8.32;1.83;;;;;;;;;;4904775;29;20072;-61
2022/04/06 06:42:44;;;;;;;6.03;1.67;;;;;;;;;;4904446;29;20337;-60
2022/04/06 06:45:09;;;;;;;4.25;1.60;;;;;;;;;;4904157;29;20029;-60
2022/04/06 06:47:35;;;;;;;5.25;1.70;;;;;;;;;;4909764;29;20037;-61
2022/04/06 06:50:01;;;;;;;6.03;1.50;;;;;;;;;;4907116;29;20032;-61
2022/04/06 06:52:27;;;;;;;8.43;2.05;;;;;;;;;;4905759;29;20435;-60
2022/04/06 06:54:52;;;;;;;5.03;1.70;;;;;;;;;;4905796;29;20024;-61
2022/04/06 06:57:17;;;;;;;6.45;1.98;;;;;;;;;;4903544;29;20041;-59
2022/04/06 06:59:43;;;;;;;6.63;1.80;;;;;;;;;;4911890;29;20282;-64
2022/04/06 07:02:09;;;;;;;6.55;1.80;;;;;;;;;;4906584;29;20024;-60
2022/04/06 07:04:35;;;;;;;5.32;1.70;;;;;;;;;;4903734;29;20044;-60
2022/04/06 07:07:01;;;;;;;6.57;1.92;;;;;;;;;;4902864;29;20250;-60
2022/04/06 07:09:26;;;;;;;5.20;1.48;;;;;;;;;;4905242;29;20051;-60
2022/04/06 07:11:52;;;;;;;6.90;1.95;;;;;;;;;;4906168;29;20091;-61
2022/04/06 07:14:18;;;;;;;6.78;1.90;;;;;;;;;;4904502;29;20170;-60
2022/04/06 07:16:44;;;;;;;9.20;1.90;;;;;;;;;;4904261;29;20028;-61
2022/04/06 07:19:09;;;;;;;6.07;1.70;;;;;;;;;;4909982;29;20381;-60
2022/04/06 07:21:35;;;;;;;7.63;1.60;;;;;;;;;;4909413;29;20028;-60
2022/04/06 07:24:02;;;;;;;6.25;1.70;;;;;;;;;;4907863;29;20024;-61
2022/04/06 07:26:27;;;;;;;4.10;1.70;;;;;;;;;;4907536;29;20332;-60
2022/04/06 07:28:53;;;;;;;6.65;1.70;;;;;;;;;;4908931;29;20044;-61
2022/04/06 07:31:18;;;;;;;8.13;1.92;;;;;;;;;;4909353;29;20048;-60
2022/04/06 07:33:44;;;;;;;4.40;1.63;;;;;;;;;;4909318;29;20320;-60
2022/04/06 07:36:10;;;;;;;4.20;1.20;;;;;;;;;;4909251;29;20033;-60
2022/04/06 07:38:35;;;;;;;5.82;1.63;;;;;;;;;;4909549;29;20348;-60
2022/04/06 07:41:01;;;;;;;5.05;1.60;;;;;;;;;;4906173;29;20029;-61
2022/04/06 07:43:27;;;;;;;6.45;1.67;;;;;;;;;;4903184;29;20064;-61
2022/04/06 07:45:53;;;;;;;4.07;1.63;;;;;;;;;;4906489;29;20863;-60
2022/04/06 07:48:18;;;;;;;5.03;1.33;;;;;;;;;;4907531;29;20020;-61
2022/04/06 07:50:43;;;;;;;5.68;1.13;;;;;;;;;;4907890;29;20024;-60
2022/04/06 07:53:09;;;;;;;10.00;1.55;;;;;;;;;;4904864;29;20195;-61
2022/04/06 07:55:34;;;;;;;4.55;1.58;;;;;;;;;;4909185;29;20028;-60
2022/04/06 07:58:00;;;;;;;6.43;1.33;;;;;;;;;;4907431;29;20104;-62
2022/04/06 08:00:25;;;;;;;5.65;1.85;;;;;;;;;;4912718;29;20282;-62
2022/04/06 08:02:51;;;;;;;5.80;1.30;;;;;;;;;;4915787;29;20036;-61
2022/04/06 08:05:18;;;;;;;5.13;2.38;;;;;;;;;;4916172;29;20032;-61
2022/04/06 08:07:44;;;;;;;7.25;2.17;;;;;;;;;;4907967;29;20083;-60
2022/04/06 08:10:13;;;;;;;3.75;1.33;;;;;;;;;;4911362;29;20028;-60
2022/04/06 08:12:39;;;;;;;6.65;1.30;;;;;;;;;;4910886;29;20033;-60
2022/04/06 08:15:05;;;;;;;8.88;1.90;;;;;;;;;;4905895;29;20211;-62
2022/04/06 08:17:39;;;;;;;6.00;1.60;;;;;;;;;;4909881;29;20025;-61
2022/04/06 08:20:08;;;;;;;7.10;1.63;;;;;;;;;;4909961;29;20103;-61
2022/04/06 08:22:34;;;;;;;6.80;1.98;;;;;;;;;;4907918;29;20033;-62
2022/04/06 08:24:59;;;;;;;3.55;1.42;;;;;;;;;;4912809;29;20039;-60
2022/04/06 08:27:27;;;;;;;4.90;1.75;;;;;;;;;;4897626;29;20033;-62
2022/04/06 08:29:56;;;;;;;6.18;1.50;;;;;;;;;;4918584;29;20036;-61
2022/04/06 08:32:21;;;;;;;5.70;2.35;;;;;;;;;;4912345;29;20028;-60
2022/04/06 08:34:47;;;;;;;6.28;1.67;;;;;;;;;;4916255;29;20028;-60
2022/04/06 08:37:12;;;;;;;7.03;1.90;;;;;;;;;;4911592;29;20253;-62
2022/04/06 08:39:38;;;;;;;7.50;1.75;;;;;;;;;;4916481;29;20055;-61
2022/04/06 08:42:04;;;;;;;6.53;1.92;;;;;;;;;;4920525;29;20028;-60
2022/04/06 08:44:30;;;;;;;4.05;1.60;;;;;;;;;;4919834;29;20043;-61
2022/04/06 08:47:03;;;;;;;6.75;2.22;;;;;;;;;;4911278;29;20052;-61
2022/04/06 08:49:29;;;;;;;4.88;1.63;;;;;;;;;;4906883;29;20056;-59
2022/04/06 08:51:56;;;;;;;5.50;2.30;;;;;;;;;;4911559;29;20143;-60
2022/04/06 08:54:23;;;;;;;3.88;1.52;;;;;;;;;;4904653;29;20048;-59
2022/04/06 08:56:49;;;;;;;5.88;2.13;;;;;;;;;;4914937;29;20027;-61
2022/04/06 08:59:14;;;;;;;4.68;1.40;;;;;;;;;;4916156;29;20024;-60
2022/04/06 09:01:40;;;;;;;6.43;1.65;;;;;;;;;;4913385;29;20036;-60
2022/04/06 09:04:05;;;;;;;5.50;1.60;;;;;;;;;;4911012;29;20106;-60
2022/04/06 09:06:39;;;;;;;3.25;1.60;;;;;;;;;;4911489;29;20071;-60
2022/04/06 09:09:05;;;;;;;2.70;1.30;;;;;;;;;;4910285;29;20036;-62
2022/04/06 09:11:41;;;;;;;3.38;1.20;;;;;;;;;;4910554;29;20033;-59
2022/04/06 09:14:06;;;;;;;6.90;1.52;;;;;;;;;;4910461;29;20269;-58
2022/04/06 09:16:32;;;;;;;5.32;1.50;;;;;;;;;;4916438;29;20039;-60
2022/04/06 09:19:16;;;;;;;4.15;1.48;;;;;;;;;;4907337;29;20039;-60
2022/04/06 09:21:44;;;;;;;5.60;1.67;;;;;;;;;;4916132;29;20087;-60
2022/04/06 09:24:17;;;;;;;4.60;1.52;;;;;;;;;;4903382;29;20072;-60
2022/04/06 09:26:43;;;;;;;6.13;2.40;;;;;;;;;;4899261;29;20040;-60
2022/04/06 09:29:15;;;;;;;5.47;1.67;;;;;;;;;;4910978;29;20032;-60
2022/04/06 09:31:41;;;;;;;3.85;1.58;;;;;;;;;;4913141;29;20111;-60
2022/04/06 09:34:12;;;;;;;4.63;1.40;;;;;;;;;;4906888;29;20033;-60
2022/04/06 09:36:38;;;;;;;5.50;1.48;;;;;;;;;;4919859;29;20224;-60
2022/04/06 09:39:05;;;;;;;6.60;1.80;;;;;;;;;;4915047;29;20368;-60
2022/04/06 09:41:31;;;;;;;4.72;2.10;;;;;;;;;;4913166;29;20057;-59
2022/04/06 09:44:07;;;;;;;10.88;2.42;;;;;;;;;;4912809;29;20028;-61
2022/04/06 09:49:19;;;;;;;6.20;2.00;;;;;;;;;;4912559;29;20054;-61
2022/04/06 09:51:46;;;;;;;4.80;2.10;;;;;;;;;;4917496;29;20032;-58
2022/04/06 09:54:13;;;;;;;4.05;1.60;;;;;;;;;;4906771;29;20075;-61
2022/04/06 09:56:40;;;;;;;7.05;1.98;;;;;;;;;;4909121;29;20028;-61
2022/04/06 09:59:07;;;;;;;5.93;2.15;;;;;;;;;;4912361;29;20339;-60
2022/04/06 10:01:35;;;;;;;5.15;1.52;;;;;;;;;;4910196;29;20067;-60
2022/04/06 10:04:09;;;;;;;7.05;2.10;;;;;;;;;;4911398;29;20115;-61
2022/04/06 10:06:36;;;;;;;10.60;2.20;;;;;;;;;;4912751;29;20044;-59
2022/04/06 10:09:07;;;;;;;6.75;1.90;;;;;;;;;;4915904;29;20040;-61
2022/04/06 10:11:37;;;;;;;5.82;2.03;;;;;;;;;;4912772;29;20141;-61
2022/04/06 10:14:05;;;;;;;6.65;1.98;;;;;;;;;;4910776;29;20128;-60
2022/04/06 10:16:38;;;;;;;5.28;2.03;;;;;;;;;;4913013;29;20029;-61
2022/04/06 10:19:06;;;;;;;6.03;2.25;;;;;;;;;;4908913;29;20039;-61
2022/04/06 10:21:44;;;;;;;4.60;2.03;;;;;;;;;;4916137;29;20029;-61
2022/04/06 10:24:25;;;;;;;5.43;2.05;;;;;;;;;;4905134;29;20028;-60
2022/04/06 10:27:05;;;;;;;4.95;2.00;;;;;;;;;;4908950;29;20287;-62
2022/04/06 10:29:31;;;;;;;6.22;1.85;;;;;;;;;;4905033;29;20037;-62
2022/04/06 10:31:57;;;;;;;9.10;2.42;;;;;;;;;;4918647;29;20108;-60
2022/04/06 10:34:25;;;;;;;6.78;2.03;;;;;;;;;;4915687;29;20103;-61
2022/04/06 10:37:12;;;;;;;8.02;2.45;;;;;;;;;;4919759;29;20142;-55
2022/04/06 10:39:57;;;;;;;6.68;1.92;;;;;;;;;;4907125;29;20397;-52
2022/04/06 10:42:32;;;;;;;6.72;2.03;;;;;;;;;;4908932;29;20229;-55
2022/04/06 10:44:58;;;;;;;5.30;1.80;;;;;;;;;;4911488;29;20028;-55
2022/04/06 10:47:29;;;;;;;6.30;2.13;;;;;;;;;;4905064;29;20273;-58
2022/04/06 10:50:15;;;;;;;3.58;1.83;;;;;;;;;;4902598;29;20104;-58
2022/04/06 10:52:43;;;;;;;5.55;1.80;;;;;;;;;;4904861;29;20123;-58
2022/04/06 10:55:11;;;;;;;9.77;2.35;;;;;;;;;;4909164;29;20075;-57
2022/04/06 10:58:03;;;;;;;7.60;1.60;;;;;;;;;;4912212;29;20115;-59
2022/04/06 11:00:29;;;;;;;6.15;1.80;;;;;;;;;;4907306;29;20108;-59
2022/04/06 11:03:13;;;;;;;5.03;1.83;;;;;;;;;;4906710;29;20037;-59
2022/04/06 11:05:44;;;;;;;6.43;1.67;;;;;;;;;;4905623;29;20083;-58
2022/04/06 11:11:32;;;;;;;8.23;1.73;;;;;;;;;;4911676;29;20103;-58
2022/04/06 11:13:58;;;;;;;7.75;1.70;;;;;;;;;;4905953;29;20394;-59
2022/04/06 11:16:46;;;;;;;7.35;1.98;;;;;;;;;;4913633;29;20037;-60
2022/04/06 11:19:13;;;;;;;7.40;2.38;;;;;;;;;;4910640;29;20396;-57
2022/04/06 11:21:57;;;;;;;5.07;2.03;;;;;;;;;;4912821;29;20036;-58
2022/04/06 11:24:31;;;;;;;5.35;2.00;;;;;;;;;;4910205;29;20028;-58
2022/04/06 11:26:56;;;;;;;6.55;1.85;;;;;;;;;;4902138;29;20080;-56
2022/04/06 11:29:26;;;;;;;4.47;1.80;;;;;;;;;;4904410;29;20373;-57
2022/04/06 11:31:55;;;;;;;5.50;1.80;;;;;;;;;;4905649;29;20050;-61
2022/04/06 11:40:20;;;;;;;5.32;1.92;;;;;;;;;;5421565;23;20058;-60
2022/04/06 11:53:47;;;;;;;5.80;1.65;;;;;;;;;;4968819;28;20110;-51
2022/04/06 11:56:20;;;;;;;6.20;1.83;;;;;;;;;;4965948;28;20043;-56
2022/04/06 11:58:48;;;;;;;14.77;1.90;;;;;;;;;;4965786;28;20034;-51
2022/04/06 12:01:17;;;;;;;5.00;1.30;;;;;;;;;;4958361;28;20029;-56
2022/04/06 12:03:47;;;;;;;2.67;1.00;;;;;;;;;;4964814;28;20089;-55
2022/04/06 12:06:14;;;;;;;8.35;1.20;;;;;;;;;;4969046;28;20035;-55
2022/04/06 12:08:42;;;;;;;4.90;1.40;;;;;;;;;;4958767;28;20373;-54
2022/04/06 12:11:09;;;;;;;4.63;1.02;;;;;;;;;;4961410;28;20031;-56
2022/04/06 12:13:36;;;;;;;3.17;0.93;;;;;;;;;;4963318;28;20043;-55
2022/04/06 12:16:03;;;;;;;5.72;1.13;;;;;;;;;;4960152;28;20188;-54
2022/04/06 12:18:30;;;;;;;3.40;0.88;;;;;;;;;;4959295;28;20036;-56
2022/04/06 12:20:56;;;;;;;3.90;0.90;;;;;;;;;;4964789;28;20038;-60
2022/04/06 12:23:26;;;;;;;3.72;1.00;;;;;;;;;;4957646;28;20027;-55
2022/04/06 12:25:52;;;;;;;7.65;0.70;;;;;;;;;;4959762;28;20164;-55
2022/04/06 12:28:23;;;;;;;2.58;0.85;;;;;;;;;;4964572;28;20188;-56
2022/04/06 12:31:00;;;;;;;3.38;1.27;;;;;;;;;;4960017;28;20071;-56
2022/04/06 12:33:33;;;;;;;3.60;0.90;;;;;;;;;;4960537;28;20295;-56
2022/04/06 12:36:22;;;;;;;2.60;1.10;;;;;;;;;;4964016;28;20036;-54
2022/04/06 12:39:10;;;;;;;2.83;0.90;;;;;;;;;;4957592;28;20062;-55
2022/04/06 12:42:00;;;;;;;3.97;1.15;;;;;;;;;;4964897;28;20062;-56
2022/04/06 12:44:27;;;;;;;4.18;1.00;;;;;;;;;;4962642;28;20065;-56
2022/04/06 12:46:53;;;;;;;4.57;1.63;;;;;;;;;;4963133;28;20109;-55
2022/04/06 12:49:41;;;;;;;4.30;0.80;;;;;;;;;;4960682;28;20217;-56
2022/04/06 12:52:18;;;;;;;4.10;1.10;;;;;;;;;;4961106;28;20106;-55
2022/04/06 12:54:51;;;;;;;5.72;0.90;;;;;;;;;;4959071;28;20098;-58
2022/04/06 12:57:17;;;;;;;4.55;1.25;;;;;;;;;;4957918;28;20039;-59
2022/04/06 12:59:43;;;;;;;3.20;0.85;;;;;;;;;;4965344;28;20114;-59
2022/04/06 13:02:38;;;;;;;1.90;0.60;;;;;;;;;;4962856;28;20043;-60
2022/04/06 13:05:15;;;;;;;3.53;1.00;;;;;;;;;;4950649;28;20039;-59
2022/04/06 13:07:45;;;;;;;3.42;0.90;;;;;;;;;;4965700;28;20043;-58
2022/04/06 13:10:12;;;;;;;1.85;0.68;;;;;;;;;;4956510;28;20792;-60
2022/04/06 13:12:42;;;;;;;1.85;1.25;;;;;;;;;;4958251;28;20332;-57
2022/04/06 13:15:09;;;;;;;4.07;0.68;;;;;;;;;;4957505;28;20383;-59
2022/04/06 13:17:36;;;;;;;2.25;0.77;;;;;;;;;;4957515;28;20046;-60
2022/04/06 13:20:07;;;;;;;2.20;0.73;;;;;;;;;;4961898;28;20027;-60
2022/04/06 13:22:37;;;;;;;1.52;0.50;;;;;;;;;;4957197;28;20061;-59
2022/04/06 13:25:04;;;;;;;1.85;0.65;;;;;;;;;;4958600;28;20032;-59
2022/04/06 13:27:29;;;;;;;1.15;0.82;;;;;;;;;;4959891;28;20035;-60
2022/04/06 13:29:54;;;;;;;2.33;0.80;;;;;;;;;;4957920;28;20046;-59
2022/04/06 13:32:20;;;;;;;2.60;0.70;;;;;;;;;;4961395;28;20379;-60
2022/04/06 13:34:45;;;;;;;4.40;0.60;;;;;;;;;;4960883;28;20034;-59
2022/04/06 13:37:11;;;;;;;2.10;0.60;;;;;;;;;;4963485;28;20095;-59
2022/04/06 13:39:37;;;;;;;1.80;0.70;;;;;;;;;;4963676;28;20098;-60
2022/04/06 13:42:03;;;;;;;2.55;0.52;;;;;;;;;;4955405;28;20279;-60
2022/04/06 13:44:34;;;;;;;1.98;0.60;;;;;;;;;;4960735;28;20340;-70
2022/04/06 13:47:01;;;;;;;4.38;0.90;;;;;;;;;;4955449;28;20039;-72
2022/04/06 13:49:27;;;;;;;1.55;0.80;;;;;;;;;;4962170;28;20153;-61
2022/04/06 13:51:55;;;;;;;3.67;0.47;;;;;;;;;;4954068;28;20251;-61
2022/04/06 13:54:24;;;;;;;1.83;0.50;;;;;;;;;;4960306;28;20031;-61
2022/04/06 13:56:50;;;;;;;1.65;0.43;;;;;;;;;;4954805;28;20035;-61
2022/04/06 13:59:16;;;;;;;1.33;0.40;;;;;;;;;;4965253;28;20028;-60
2022/04/06 14:01:42;;;;;;;4.43;0.70;;;;;;;;;;4958749;28;20102;-61
2022/04/06 14:04:09;;;;;;;2.45;0.60;;;;;;;;;;4968310;28;20039;-73
2022/04/06 14:06:34;;;;;;;4.47;0.57;;;;;;;;;;4958712;28;20066;-70
2022/04/06 14:09:00;;;;;;;1.00;0.50;;;;;;;;;;4963420;28;20304;-73
2022/04/06 14:11:26;;;;;;;5.22;0.65;;;;;;;;;;4960573;28;20036;-70
2022/04/06 14:13:51;;;;;;;1.08;0.50;;;;;;;;;;4962333;28;20052;-75
2022/04/06 14:16:18;;;;;;;5.47;0.65;;;;;;;;;;4957592;28;20241;-72
2022/04/06 14:18:44;;;;;;;2.47;0.57;;;;;;;;;;4965733;28;20276;-73
2022/04/06 14:21:10;;;;;;;3.00;0.70;;;;;;;;;;4954940;28;20092;-71
2022/04/06 14:23:38;;;;;;;1.80;0.50;;;;;;;;;;4963846;28;20031;-71
2022/04/06 14:26:05;;;;;;;1.95;0.60;;;;;;;;;;4960719;28;20031;-59
2022/04/06 14:28:32;;;;;;;1.95;0.55;;;;;;;;;;4965630;28;20256;-60
2022/04/06 14:30:57;;;;;;;2.78;0.60;;;;;;;;;;4968571;28;20366;-59
2022/04/06 14:33:22;;;;;;;2.90;0.55;;;;;;;;;;4966398;28;20031;-60
2022/04/06 14:35:48;;;;;;;4.75;0.75;;;;;;;;;;4967715;28;20075;-60
2022/04/06 14:38:15;;;;;;;2.47;0.93;;;;;;;;;;4967863;28;20072;-61
2022/04/06 14:40:47;;;;;;;2.00;0.65;;;;;;;;;;4968530;28;20224;-61
2022/04/06 14:43:19;;;;;;;0.85;0.40;;;;;;;;;;4964926;28;20223;-60
2022/04/06 14:45:45;;;;;;;1.08;0.50;;;;;;;;;;4964698;28;20026;-61
2022/04/06 14:48:10;;;;;;;2.38;0.80;;;;;;;;;;4963730;28;20046;-61
2022/04/06 14:50:38;;;;;;;1.20;0.40;;;;;;;;;;4967818;28;20046;-61
2022/04/06 14:53:09;;;;;;;1.10;0.65;;;;;;;;;;4962406;28;20074;-60
2022/04/06 14:55:35;;;;;;;3.75;0.80;;;;;;;;;;4961469;28;20079;-60
2022/04/06 14:58:01;;;;;;;2.72;0.68;;;;;;;;;;4963261;28;20039;-60
2022/04/06 15:00:28;;;;;;;3.92;0.68;;;;;;;;;;4962988;28;20027;-60
2022/04/06 15:02:57;;;;;;;1.90;0.80;;;;;;;;;;4956248;28;20027;-59
2022/04/06 15:05:23;;;;;;;2.33;0.52;;;;;;;;;;4972902;28;20043;-59
2022/04/06 15:07:50;;;;;;;2.28;0.60;;;;;;;;;;4962954;28;20043;-63
2022/04/06 15:10:17;;;;;;;0.98;0.55;;;;;;;;;;4957017;28;20098;-58
2022/04/06 15:12:42;;;;;;;1.73;0.73;;;;;;;;;;4957455;28;20046;-59